Japura, Brazil
Current Conditions -  °F | °C
As of 12:00 PM on Thursday 29 Jan 2015 (Local Time) from SBMG Reporting Station
Broken Clouds Broken Clouds  
Wind Chill: 77°   Ceiling: 3500
Heat Index: 78°   Visibility: 6mi
Dew Point: 73°   Wind: 10mph
Humidity: 89%   Direction: 340°NNW
Pressure: 29.97"   Gusts: NA
Location:  23.47°S, 52.55°W
Report Text: SBMG 291400Z 34009KT 9999 SCT015 BKN035 25/23 Q1015
Loading
Personal Weather Stations






























Interactive Weather Map New forecast layout! Learn more

10-Day Weather Forecast

Advertisements
Track Severe Weather on mobile